createdAt,value
2019-02-09T00:01:40.535Z,9.47
2019-02-09T00:04:49.124Z,9.42
2019-02-09T00:07:57.918Z,9.43
2019-02-09T00:11:16.687Z,9.59
2019-02-09T00:14:25.367Z,9.43
2019-02-09T00:17:33.961Z,9.38
2019-02-09T00:20:42.599Z,9.34
2019-02-09T00:23:52.182Z,9.39
2019-02-09T00:27:00.686Z,9.38
2019-02-09T00:30:10.100Z,9.29
2019-02-09T00:33:28.855Z,9.25
2019-02-09T00:36:37.550Z,9.12
2019-02-09T00:39:46.125Z,8.97
2019-02-09T00:42:54.681Z,8.91
2019-02-09T00:46:03.190Z,8.83
2019-02-09T00:49:11.776Z,8.74
2019-02-09T00:52:30.586Z,8.64
2019-02-09T00:55:39.098Z,8.48
2019-02-09T00:58:47.669Z,8.36
2019-02-09T01:01:56.236Z,8.25
2019-02-09T01:05:05.630Z,8.15
2019-02-09T01:08:15.821Z,8.07
2019-02-09T01:11:24.395Z,8.05
2019-02-09T01:14:33.177Z,8.03
2019-02-09T01:17:41.851Z,8.05
2019-02-09T01:20:50.447Z,8.07
2019-02-09T01:24:09.191Z,8.15
2019-02-09T01:27:17.797Z,8.17
2019-02-09T01:30:27.444Z,8.04
2019-02-09T01:33:36.058Z,8.09
2019-02-09T01:36:55.068Z,8.10
2019-02-09T01:40:04.271Z,8.10
2019-02-09T01:43:23.082Z,8.04
2019-02-09T01:46:42.546Z,8.02
2019-02-09T01:49:51.030Z,7.89
2019-02-09T01:52:59.929Z,7.75
2019-02-09T01:56:10.112Z,7.62
2019-02-09T01:59:18.664Z,7.67
2019-02-09T02:02:28.363Z,7.66
2019-02-09T02:05:37.175Z,7.58
2019-02-09T02:08:56.169Z,7.66
2019-02-09T02:12:05.260Z,7.67
2019-02-09T02:15:16.973Z,7.62
2019-02-09T02:18:25.472Z,7.68
2019-02-09T02:21:33.977Z,7.68
2019-02-09T02:24:43.381Z,7.65
2019-02-09T02:27:51.940Z,7.56
2019-02-09T02:31:00.545Z,7.58
2019-02-09T02:34:09.096Z,7.64
2019-02-09T02:37:17.603Z,7.63
2019-02-09T02:40:36.630Z,7.77
2019-02-09T02:43:45.275Z,7.70
2019-02-09T02:46:52.282Z,7.68
2019-02-09T02:50:00.834Z,7.68
2019-02-09T02:53:09.410Z,7.66
2019-02-09T02:56:18.073Z,7.65
2019-02-09T02:59:26.633Z,7.71
2019-02-09T03:02:35.241Z,7.62
2019-02-09T03:05:54.162Z,7.76
2019-02-09T03:09:13.420Z,7.72
2019-02-09T03:12:22.106Z,7.71
2019-02-09T03:15:31.819Z,7.75
2019-02-09T03:18:41.311Z,7.81
2019-02-09T03:21:50.183Z,7.75
2019-02-09T03:24:58.800Z,7.82
2019-02-09T03:28:07.528Z,7.86
2019-02-09T03:31:16.414Z,7.84
2019-02-09T03:34:24.978Z,7.81
2019-02-09T03:37:33.630Z,7.93
2019-02-09T03:40:42.182Z,7.96
2019-02-09T03:43:50.762Z,7.95
2019-02-09T03:47:09.626Z,7.98
2019-02-09T03:50:19.016Z,7.94
2019-02-09T03:53:37.735Z,7.98
2019-02-09T03:56:46.327Z,7.86
2019-02-09T03:59:54.923Z,7.96
2019-02-09T04:03:04.001Z,8.03
2019-02-09T04:06:12.558Z,8.03
2019-02-09T04:09:21.133Z,7.93
2019-02-09T04:12:29.718Z,7.88
2019-02-09T04:15:38.418Z,7.99
2019-02-09T04:18:46.989Z,7.99
2019-02-09T04:22:05.935Z,8.00
2019-02-09T04:25:16.017Z,7.94
2019-02-09T04:28:24.691Z,8.00
2019-02-09T04:31:33.242Z,8.04
2019-02-09T04:34:41.834Z,8.06
2019-02-09T04:37:50.516Z,8.11
2019-02-09T04:51:50.449Z,8.28
2019-02-09T04:54:59.591Z,8.23
2019-02-09T04:58:08.170Z,8.26
2019-02-09T05:01:27.088Z,8.31
2019-02-09T05:04:35.681Z,8.22
2019-02-09T05:07:44.338Z,8.23
2019-02-09T05:10:53.003Z,8.20
2019-02-09T05:14:01.608Z,8.22
2019-02-09T05:17:10.180Z,8.20
2019-02-09T05:20:22.032Z,8.18
2019-02-09T05:23:40.843Z,8.18
2019-02-09T05:26:49.393Z,8.13
2019-02-09T05:29:57.958Z,8.17
2019-02-09T05:33:06.608Z,8.22
2019-02-09T05:36:15.156Z,8.23
2019-02-09T05:39:23.841Z,8.28
2019-02-09T05:42:42.679Z,8.24
2019-02-09T05:45:51.381Z,8.14
2019-02-09T05:49:00.005Z,8.17
2019-02-09T05:52:08.552Z,8.16
2019-02-09T05:55:17.965Z,8.13
2019-02-09T05:58:26.509Z,8.15
2019-02-09T06:01:35.172Z,8.08
2019-02-09T06:04:43.737Z,8.11
2019-02-09T06:07:52.200Z,8.17
2019-02-09T06:11:00.872Z,8.17
2019-02-09T06:14:09.591Z,8.15
2019-02-09T06:17:28.314Z,8.27
2019-02-09T06:20:38.389Z,8.22
2019-02-09T06:23:46.955Z,8.21
2019-02-09T06:26:55.398Z,8.26
2019-02-09T06:30:03.996Z,8.20
2019-02-09T06:33:22.864Z,8.24
2019-02-09T06:36:31.406Z,8.19
2019-02-09T06:39:39.979Z,8.24
2019-02-09T06:42:48.769Z,8.30
2019-02-09T06:45:57.342Z,8.20
2019-02-09T06:49:05.919Z,8.07
2019-02-09T06:52:14.546Z,8.04
2019-02-09T06:55:33.404Z,8.08
2019-02-09T06:58:41.977Z,8.00
2019-02-09T07:01:50.531Z,7.92
2019-02-09T07:04:59.092Z,7.83
2019-02-09T07:08:08.092Z,7.80
2019-02-09T07:11:16.560Z,7.78
2019-02-09T07:14:25.034Z,7.62
2019-02-09T07:17:43.924Z,7.74
2019-02-09T07:20:53.629Z,7.70
2019-02-09T07:24:02.223Z,7.64
2019-02-09T07:27:20.867Z,7.71
2019-02-09T07:30:29.994Z,7.69
2019-02-09T07:33:38.570Z,7.71
2019-02-09T07:36:45.590Z,7.72
2019-02-09T07:39:54.201Z,7.83
2019-02-09T07:43:02.856Z,7.85
2019-02-09T07:46:11.431Z,7.89
2019-02-09T07:49:19.980Z,7.94
2019-02-09T07:52:28.641Z,7.97
2019-02-09T07:55:47.409Z,8.09
2019-02-09T07:58:55.909Z,8.13
2019-02-09T08:02:04.938Z,8.21
2019-02-09T08:05:13.873Z,8.21
2019-02-09T08:08:22.465Z,8.19
2019-02-09T08:11:31.100Z,8.24
2019-02-09T08:14:39.673Z,8.25
2019-02-09T08:17:48.249Z,8.37
2019-02-09T08:20:56.876Z,8.35
2019-02-09T08:24:15.579Z,8.47
2019-02-09T08:27:24.796Z,8.51
2019-02-09T08:30:37.877Z,8.66
2019-02-09T08:33:46.330Z,8.80
2019-02-09T08:36:54.909Z,8.87
2019-02-09T08:40:03.448Z,8.96
2019-02-09T08:43:12.009Z,8.94
2019-02-09T08:46:30.931Z,8.75
2019-02-09T08:49:39.472Z,8.70
2019-02-09T08:52:48.093Z,8.94
2019-02-09T08:55:56.816Z,9.03
2019-02-09T08:59:05.381Z,9.24
2019-02-09T09:02:20.396Z,9.35
2019-02-09T09:05:24.397Z,9.18
2019-02-09T09:08:32.987Z,9.13
2019-02-09T09:11:51.931Z,9.26
2019-02-09T09:15:00.396Z,9.19
2019-02-09T09:18:09.526Z,9.19
2019-02-09T09:21:18.179Z,9.27
2019-02-09T09:24:26.733Z,9.95
2019-02-09T09:27:35.314Z,10.72
2019-02-09T09:30:43.928Z,10.77
2019-02-09T09:33:52.560Z,10.43
2019-02-09T09:37:01.120Z,10.36
2019-02-09T09:40:24.600Z,10.27
2019-02-09T09:43:34.154Z,10.02
2019-02-09T09:46:53.065Z,10.10
2019-02-09T09:50:01.635Z,10.01
2019-02-09T09:53:10.322Z,10.04
2019-02-09T09:56:18.880Z,10.15
2019-02-09T09:59:27.362Z,10.34
2019-02-09T10:02:36.683Z,10.51
2019-02-09T10:05:45.515Z,10.50
2019-02-09T10:08:54.090Z,10.49
2019-02-09T10:12:02.589Z,10.57
2019-02-09T10:15:15.973Z,10.69
2019-02-09T10:18:34.918Z,10.71
2019-02-09T10:21:43.519Z,10.32
2019-02-09T10:24:51.985Z,10.17
2019-02-09T10:28:00.702Z,10.13
2019-02-09T10:31:09.336Z,10.15
2019-02-09T10:34:17.923Z,10.20
2019-02-09T10:37:36.632Z,10.26
2019-02-09T10:40:45.271Z,10.37
2019-02-09T10:43:54.056Z,10.36
2019-02-09T10:47:02.623Z,10.76
2019-02-09T10:50:18.819Z,10.85
2019-02-09T10:53:27.455Z,10.78
2019-02-09T10:56:46.270Z,10.64
2019-02-09T10:59:55.854Z,10.85
2019-02-09T11:03:04.867Z,11.22
2019-02-09T11:06:13.460Z,11.22
2019-02-09T11:09:24.985Z,11.19
2019-02-09T11:12:33.529Z,10.95
2019-02-09T11:15:42.105Z,10.91
2019-02-09T11:18:52.226Z,10.84
2019-02-09T11:22:00.823Z,10.70
2019-02-09T11:25:11.956Z,10.57
2019-02-09T11:28:20.519Z,10.42
2019-02-09T11:31:29.121Z,10.38
2019-02-09T11:34:37.634Z,10.42
2019-02-09T11:37:46.523Z,10.27
2019-02-09T11:40:55.266Z,10.53
2019-02-09T11:44:03.746Z,11.16
2019-02-09T11:47:12.331Z,11.39
2019-02-09T11:50:31.563Z,12.41
2019-02-09T11:53:40.085Z,12.92
2019-02-09T11:56:48.571Z,12.65
2019-02-09T11:59:57.168Z,12.46
2019-02-09T12:03:14.802Z,12.20
2019-02-09T12:06:18.172Z,11.97
2019-02-09T12:09:26.668Z,11.46
2019-02-09T12:12:35.295Z,11.29
2019-02-09T12:15:43.998Z,11.12
2019-02-09T12:19:02.756Z,11.13
2019-02-09T12:22:11.428Z,11.14
2019-02-09T12:25:27.379Z,11.17
2019-02-09T12:28:46.110Z,11.42
2019-02-09T12:31:55.014Z,11.77
2019-02-09T12:35:03.581Z,11.97
2019-02-09T12:38:12.822Z,11.81
2019-02-09T12:41:22.852Z,11.38
2019-02-09T12:44:32.884Z,11.12
2019-02-09T12:47:41.388Z,10.93
2019-02-09T12:50:50.006Z,10.84
2019-02-09T12:53:58.600Z,10.81
2019-02-09T12:57:17.505Z,10.92
2019-02-09T13:00:30.425Z,10.80
2019-02-09T13:03:38.867Z,10.90
2019-02-09T13:06:57.678Z,11.00
2019-02-09T13:10:07.226Z,10.89
2019-02-09T13:13:15.683Z,10.91
2019-02-09T13:16:34.554Z,11.24
2019-02-09T13:19:43.131Z,11.27
2019-02-09T13:22:52.356Z,11.14
2019-02-09T13:26:01.011Z,11.09
2019-02-09T13:29:09.642Z,11.00
2019-02-09T13:32:18.251Z,10.86
2019-02-09T13:35:26.850Z,10.91
2019-02-09T13:38:35.447Z,10.80
2019-02-09T13:41:44.132Z,10.78
2019-02-09T13:44:52.798Z,10.67
2019-02-09T13:48:11.965Z,10.77
2019-02-09T13:51:31.151Z,10.88
2019-02-09T13:54:39.713Z,11.30
2019-02-09T13:57:48.340Z,11.29
2019-02-09T14:00:57.050Z,11.25
2019-02-09T14:04:05.695Z,11.40
2019-02-09T14:07:15.771Z,11.82
2019-02-09T14:10:25.398Z,12.55
2019-02-09T14:13:34.082Z,12.87
2019-02-09T14:16:42.673Z,12.83
2019-02-09T14:19:51.266Z,12.75
2019-02-09T14:22:59.983Z,12.45
2019-02-09T14:26:08.665Z,12.20
2019-02-09T14:29:17.987Z,12.11
2019-02-09T14:32:26.749Z,12.02
2019-02-09T14:35:35.322Z,11.70
2019-02-09T14:38:43.776Z,11.38
2019-02-09T14:41:52.690Z,11.17
2019-02-09T14:45:01.130Z,11.07
2019-02-09T14:48:09.819Z,10.72
2019-02-09T14:51:29.829Z,10.04
2019-02-09T14:54:38.431Z,9.30
2019-02-09T14:57:46.929Z,8.83
2019-02-09T15:01:05.994Z,8.39
2019-02-09T15:04:14.538Z,8.27
2019-02-09T15:07:23.043Z,8.20
2019-02-09T15:10:31.611Z,8.13
2019-02-09T15:13:40.197Z,8.06
2019-02-09T15:16:53.639Z,7.97
2019-02-09T15:20:02.088Z,7.96
2019-02-09T15:23:21.076Z,8.02
2019-02-09T15:26:29.684Z,7.89
2019-02-09T15:29:38.306Z,7.95
2019-02-09T15:32:47.118Z,7.92
2019-02-09T15:35:55.740Z,7.94
2019-02-09T15:39:05.713Z,7.95
2019-02-09T15:42:17.966Z,8.02
2019-02-09T15:45:26.902Z,7.95
2019-02-09T15:48:35.458Z,7.93
2019-02-09T15:51:44.118Z,7.97
2019-02-09T15:54:52.671Z,7.94
2019-02-09T15:58:11.615Z,7.96
2019-02-09T16:01:20.249Z,7.82
2019-02-09T16:04:28.825Z,7.84
2019-02-09T16:07:37.396Z,7.88
2019-02-09T16:10:47.285Z,7.98
2019-02-09T16:14:07.015Z,7.99
2019-02-09T16:17:20.036Z,7.98
2019-02-09T16:20:28.571Z,8.03
2019-02-09T16:23:37.169Z,8.04
2019-02-09T16:26:45.715Z,7.92
2019-02-09T16:29:54.289Z,7.81
2019-02-09T16:33:03.143Z,7.85
2019-02-09T16:36:11.726Z,7.91
2019-02-09T16:39:20.298Z,7.94
2019-02-09T16:42:39.186Z,7.97
2019-02-09T16:45:47.745Z,7.92
2019-02-09T16:48:56.326Z,7.93
2019-02-09T16:52:05.093Z,7.96
2019-02-09T16:55:16.352Z,7.99
2019-02-09T16:58:24.831Z,8.00
2019-02-09T17:01:33.489Z,8.04
2019-02-09T17:04:42.082Z,8.03
2019-02-09T17:07:50.745Z,8.00
2019-02-09T17:10:59.369Z,8.06
2019-02-09T17:14:08.289Z,7.94
2019-02-09T17:17:16.734Z,7.81
2019-02-09T17:20:25.738Z,7.78
2019-02-09T17:23:34.497Z,7.72
2019-02-09T17:26:43.147Z,7.66
2019-02-09T17:29:51.727Z,7.68
2019-02-09T17:33:10.580Z,7.72
2019-02-09T17:36:19.040Z,7.62
2019-02-09T17:39:27.624Z,7.53
2019-02-09T17:42:36.185Z,7.48
2019-02-09T17:45:55.062Z,7.44
2019-02-09T17:49:03.549Z,7.42
2019-02-09T17:52:12.721Z,7.43
2019-02-09T17:55:21.536Z,7.49
2019-02-09T17:58:30.077Z,7.47
2019-02-09T18:01:38.795Z,7.47
2019-02-09T18:04:48.638Z,7.58
2019-02-09T18:07:57.749Z,7.51
2019-02-09T18:11:06.626Z,7.50
2019-02-09T18:14:16.737Z,7.50
2019-02-09T18:17:25.986Z,7.57
2019-02-09T18:20:34.655Z,7.62
2019-02-09T18:23:43.251Z,7.65
2019-02-09T18:26:51.817Z,7.66
2019-02-09T18:30:16.798Z,7.73
2019-02-09T18:33:25.365Z,7.73
2019-02-09T18:36:33.854Z,7.78
2019-02-09T18:39:42.586Z,7.84
2019-02-09T18:42:51.180Z,7.95
2019-02-09T18:46:10.174Z,8.06
2019-02-09T18:49:18.917Z,7.99
2019-02-09T18:52:27.391Z,8.06
2019-02-09T18:55:35.964Z,8.05
2019-02-09T18:58:44.413Z,8.07
2019-02-09T19:01:53.101Z,8.11
2019-02-09T19:05:12.787Z,8.20
2019-02-09T19:08:21.259Z,8.14
2019-02-09T19:11:29.911Z,8.15
2019-02-09T19:14:48.898Z,8.20
2019-02-09T19:17:57.592Z,8.15
2019-02-09T19:21:11.382Z,8.14
2019-02-09T19:24:19.867Z,8.13
2019-02-09T19:27:28.448Z,8.15
2019-02-09T19:30:37.206Z,8.23
2019-02-09T19:33:45.766Z,8.14
2019-02-09T19:36:57.561Z,8.20
2019-02-09T19:40:08.229Z,8.24
2019-02-09T19:43:20.214Z,8.26
2019-02-09T19:46:28.852Z,8.24
2019-02-09T19:49:37.414Z,8.29
2019-02-09T19:52:46.082Z,8.29
2019-02-09T19:56:04.978Z,8.37
2019-02-09T19:59:13.593Z,8.35
2019-02-09T20:02:22.259Z,8.31
2019-02-09T20:05:30.973Z,8.36
2019-02-09T20:08:39.527Z,8.40
2019-02-09T20:11:48.163Z,8.40
2019-02-09T20:14:56.670Z,8.47
2019-02-09T20:18:15.428Z,8.54
2019-02-09T20:21:24.057Z,8.54
2019-02-09T20:24:32.637Z,8.59
2019-02-09T20:27:41.251Z,8.65
2019-02-09T20:30:49.954Z,8.62
2019-02-09T20:33:58.413Z,8.67
2019-02-09T20:37:17.166Z,8.68
2019-02-09T20:40:38.387Z,8.76
2019-02-09T20:43:46.964Z,8.71
2019-02-09T20:46:55.540Z,8.74
2019-02-09T20:50:05.263Z,8.74
2019-02-09T20:53:13.963Z,8.69
2019-02-09T20:56:22.561Z,8.78
2019-02-09T20:59:31.163Z,8.79
2019-02-09T21:02:40.015Z,8.76
2019-02-09T21:05:48.478Z,8.79
2019-02-09T21:08:57.047Z,8.74
2019-02-09T21:12:15.995Z,8.80
2019-02-09T21:15:26.540Z,8.81
2019-02-09T21:18:35.041Z,8.75
2019-02-09T21:21:43.607Z,8.79
2019-02-09T21:24:52.067Z,8.80
2019-02-09T21:28:00.543Z,8.81
2019-02-09T21:31:11.946Z,8.71
2019-02-09T21:34:20.545Z,8.83
2019-02-09T21:37:30.007Z,8.72
2019-02-09T21:40:50.158Z,8.76
2019-02-09T21:44:00.286Z,8.84
2019-02-09T21:47:08.897Z,8.72
2019-02-09T21:50:22.627Z,8.70
2019-02-09T21:53:31.106Z,8.72
2019-02-09T21:56:39.680Z,8.76
2019-02-09T21:59:58.519Z,8.80
2019-02-09T22:03:09.602Z,8.67
2019-02-09T22:06:28.256Z,8.78
2019-02-09T22:09:36.834Z,8.75
2019-02-09T22:12:45.479Z,8.64
2019-02-09T22:15:53.962Z,8.69
2019-02-09T22:19:02.722Z,8.66
2019-02-09T22:22:11.280Z,8.59
2019-02-09T22:25:30.706Z,8.61
2019-02-09T22:28:39.277Z,8.53
2019-02-09T22:31:47.896Z,8.53
2019-02-09T22:34:56.425Z,8.50
2019-02-09T22:38:05.661Z,8.33
2019-02-09T22:41:14.200Z,8.32
2019-02-09T22:44:22.789Z,8.22
2019-02-09T22:47:31.355Z,8.14
2019-02-09T22:50:47.618Z,8.16
2019-02-09T22:53:56.233Z,8.11
2019-02-09T22:57:13.696Z,8.07
2019-02-09T23:00:54.955Z,8.07
2019-02-09T23:04:40.329Z,8.01
2019-02-09T23:07:48.882Z,8.12
2019-02-09T23:11:07.658Z,8.22
2019-02-09T23:14:16.282Z,8.15
2019-02-09T23:17:24.849Z,8.05
2019-02-09T23:20:33.573Z,8.07
2019-02-09T23:23:42.047Z,8.01
2019-02-09T23:26:50.557Z,8.01
2019-02-09T23:30:12.624Z,8.02
2019-02-09T23:33:23.135Z,8.04
2019-02-09T23:36:31.407Z,8.14
2019-02-09T23:39:40.198Z,8.16
2019-02-09T23:42:49.162Z,8.21
2019-02-09T23:45:59.461Z,8.20
2019-02-09T23:49:08.268Z,8.25
2019-02-09T23:52:16.884Z,8.24
2019-02-09T23:55:25.564Z,8.26
2019-02-09T23:58:32.666Z,8.30
